Time;durP1;ratioP1;P1;durP2;ratioP2;P2;SDS_P1;SDS_P2;PMS_P1;PMS_P2;Temp;Humidity;BMP_temperature;BMP_pressure;BME280_temperature;BME280_humidity;BME280_pressure;Samples;Min_cycle;Max_cycle;Signal;HPM_P1;HPM_P2
2022/12/09 11:18:32;;;;;;;5.25;2.95;;;;;;;20.67;35.09;100428.84;5131287;27;20435;-45
2022/12/09 11:21:03;;;;;;;2.92;1.77;;;;;;;21.82;33.03;100431.63;5105446;28;20040;-45
2022/12/09 11:23:30;;;;;;;3.42;2.10;;;;;;;22.54;31.20;100433.38;5110073;28;20036;-45
2022/12/09 11:26:03;;;;;;;4.78;2.17;;;;;;;23.14;30.50;100439.19;5106008;28;20149;-46
2022/12/09 11:28:32;;;;;;;4.10;2.03;;;;;;;23.47;29.63;100431.59;5108701;28;20374;-43
2022/12/09 11:31:05;;;;;;;6.75;2.10;;;;;;;23.74;29.53;100433.50;5109798;28;20031;-44
2022/12/09 11:33:37;;;;;;;4.15;1.83;;;;;;;23.95;29.15;100429.25;5106471;28;20034;-47
2022/12/09 11:36:10;;;;;;;2.88;1.67;;;;;;;24.07;28.52;100431.09;5105140;28;20036;-46
2022/12/09 11:38:41;;;;;;;4.45;1.80;;;;;;;24.19;28.38;100430.22;5109189;28;20020;-44
2022/12/09 11:41:11;;;;;;;3.85;1.98;;;;;;;24.23;28.65;100422.41;5108606;28;20027;-43
2022/12/09 11:43:44;;;;;;;3.47;1.63;;;;;;;24.36;28.07;100418.06;5109575;28;20031;-44
2022/12/09 11:46:13;;;;;;;4.25;1.50;;;;;;;24.42;27.99;100410.22;5104483;28;20032;-43
2022/12/09 11:48:47;;;;;;;3.88;1.40;;;;;;;24.46;28.33;100412.84;5109462;28;20033;-45
2022/12/09 11:51:29;;;;;;;4.30;1.90;;;;;;;24.50;28.26;100415.47;5108047;28;20431;-45
2022/12/09 11:54:19;;;;;;;3.50;1.63;;;;;;;24.57;27.63;100411.13;5108188;28;20286;-46
2022/12/09 11:56:48;;;;;;;5.28;1.75;;;;;;;24.56;28.04;100412.88;5097797;28;20039;-43
2022/12/09 11:59:30;;;;;;;4.32;1.67;;;;;;;24.56;27.51;100411.97;5107457;28;20024;-48
2022/12/09 12:02:21;;;;;;;2.60;1.42;;;;;;;24.53;27.95;100405.00;5109286;28;20085;-46
2022/12/09 12:04:59;;;;;;;2.75;1.92;;;;;;;24.60;27.70;100410.22;5103909;28;20058;-44
2022/12/09 12:07:47;;;;;;;2.25;1.20;;;;;;;24.57;28.05;100418.97;5107992;28;20097;-44
2022/12/09 12:10:22;;;;;;;1.90;1.33;;;;;;;24.52;27.78;100420.72;5100771;28;20036;-43
2022/12/09 12:13:17;;;;;;;3.95;1.70;;;;;;;24.50;27.81;100411.97;5108969;28;20448;-43
2022/12/09 12:16:05;;;;;;;2.40;1.30;;;;;;;24.56;28.03;100411.97;5106703;28;20079;-44
2022/12/09 12:19:05;;;;;;;7.68;2.05;;;;;;;24.68;27.81;100408.50;5101130;28;20085;-45
2022/12/09 12:21:49;;;;;;;1.95;1.10;;;;;;;24.65;27.43;100413.75;5108083;28;20055;-46
2022/12/09 12:24:40;;;;;;;4.03;1.92;;;;;;;24.64;27.40;100398.88;5108403;28;20032;-45
2022/12/09 12:27:27;;;;;;;4.82;1.70;;;;;;;24.66;27.76;100416.34;5100694;28;20046;-45
2022/12/09 12:29:59;;;;;;;6.53;1.98;;;;;;;24.67;27.70;100406.75;5088051;28;20136;-46
2022/12/09 12:32:38;;;;;;;2.03;1.50;;;;;;;24.63;27.54;100411.13;5093657;28;20024;-46
2022/12/09 12:35:10;;;;;;;5.57;1.48;;;;;;;24.68;27.85;100412.00;5093521;28;20023;-45
2022/12/09 12:38:04;;;;;;;2.45;1.33;;;;;;;24.66;27.51;100415.50;5090433;28;20078;-44
2022/12/09 12:40:50;;;;;;;2.70;1.35;;;;;;;24.69;27.83;100411.13;5094542;28;20155;-44
2022/12/09 12:46:24;;;;;;;;;;;;;;;24.64;27.97;100412.88;5090430;28;20116;-45
2022/12/09 12:49:11;;;;;;;2.58;1.30;;;;;;;24.67;28.11;100402.38;5094416;28;19920;-45
2022/12/09 12:51:43;;;;;;;3.35;1.42;;;;;;;24.68;27.80;100409.38;5092988;28;20358;-47
2022/12/09 12:54:21;;;;;;;1.92;0.98;;;;;;;24.72;27.63;100410.31;5094608;28;20465;-46
2022/12/09 12:57:17;;;;;;;2.13;1.27;;;;;;;24.71;27.73;100416.41;5095379;28;20032;-44
2022/12/09 12:59:54;;;;;;;4.30;1.40;;;;;;;24.71;27.78;100414.66;5089468;28;20115;-44
2022/12/09 13:02:48;;;;;;;4.00;1.30;;;;;;;24.72;27.89;100410.31;5095405;28;20024;-47
2022/12/09 13:05:24;;;;;;;5.07;1.58;;;;;;;24.76;27.58;100414.66;5087821;28;20046;-45
2022/12/09 13:08:16;;;;;;;4.10;1.42;;;;;;;24.79;27.82;100416.44;5094970;28;20020;-45
2022/12/09 13:10:49;;;;;;;2.55;1.23;;;;;;;24.72;27.60;100410.31;5095092;28;20023;-46
2022/12/09 13:13:23;;;;;;;3.88;1.20;;;;;;;24.68;27.85;100411.13;5095122;28;20024;-46
2022/12/09 13:15:54;;;;;;;5.27;1.20;;;;;;;24.76;27.48;100408.56;5094836;28;20135;-43
2022/12/09 13:18:26;;;;;;;3.90;1.67;;;;;;;24.79;27.52;100406.78;5095144;28;20728;-44
2022/12/09 13:20:59;;;;;;;1.95;1.08;;;;;;;24.73;27.95;100410.28;5094793;28;20024;-44
2022/12/09 13:23:46;;;;;;;2.80;1.02;;;;;;;24.68;27.65;100406.75;5095073;28;20081;-45
2022/12/09 13:26:24;;;;;;;3.90;0.98;;;;;;;24.68;27.80;100408.50;5073656;28;20024;-45
2022/12/09 13:29:17;;;;;;;2.03;1.20;;;;;;;24.72;27.49;100415.56;5074244;28;20040;-44
2022/12/09 13:32:10;;;;;;;2.67;1.23;;;;;;;24.79;27.68;100421.69;5068086;28;20055;-44
2022/12/09 13:34:44;;;;;;;2.35;1.10;;;;;;;24.76;27.73;100416.41;5070962;28;20044;-47
2022/12/09 13:37:32;;;;;;;1.60;0.80;;;;;;;24.74;27.72;100416.41;5074613;28;20033;-45
2022/12/09 13:40:02;;;;;;;2.00;1.08;;;;;;;24.81;27.76;100430.44;5067764;28;20043;-44
2022/12/09 13:43:12;;;;;;;1.85;1.13;;;;;;;24.80;27.30;100421.66;5074512;28;20024;-44
2022/12/09 13:45:27;;;;;;;1.23;0.90;;;;;;;24.75;27.84;100415.53;5070553;28;20048;-43
2022/12/09 13:48:00;;;;;;;2.53;1.02;;;;;;;24.78;27.35;100414.69;5074285;28;20043;-46
2022/12/09 13:50:38;;;;;;;0.70;0.68;;;;;;;24.79;27.73;100412.03;5072881;28;20086;-44
2022/12/09 13:53:29;;;;;;;1.58;0.85;;;;;;;24.77;27.94;100412.94;5073890;28;20052;-44
2022/12/09 13:56:19;;;;;;;3.15;0.90;;;;;;;24.73;27.58;100412.91;5073932;28;20111;-46
2022/12/09 13:59:25;;;;;;;1.40;1.13;;;;;;;24.81;27.58;100409.44;5070445;28;20115;-48
2022/12/09 14:02:16;;;;;;;9.52;1.42;;;;;;;24.83;27.25;100405.94;5071681;28;20041;-45
2022/12/09 14:05:07;;;;;;;1.90;1.10;;;;;;;24.76;27.63;100392.81;5074077;28;20029;-43
2022/12/09 14:07:49;;;;;;;1.00;0.77;;;;;;;24.85;27.35;100400.66;5069946;28;20486;-44
2022/12/09 14:10:38;;;;;;;0.82;0.65;;;;;;;24.87;27.64;100397.19;5072441;28;20377;-45
2022/12/09 14:13:35;;;;;;;1.52;0.80;;;;;;;24.92;27.17;100401.53;5073663;28;20500;-44
2022/12/09 14:16:32;;;;;;;1.80;0.77;;;;;;;24.80;27.52;100398.06;5069460;28;20040;-46
2022/12/09 14:19:30;;;;;;;1.40;0.93;;;;;;;24.83;27.64;100403.31;5069897;28;20490;-48
2022/12/09 14:22:18;;;;;;;1.67;1.05;;;;;;;24.86;27.39;100411.19;5073237;28;20477;-45
2022/12/09 14:24:48;;;;;;;1.05;0.80;;;;;;;24.85;27.75;100406.81;5073772;28;20051;-44
2022/12/09 14:27:19;;;;;;;1.00;0.77;;;;;;;24.83;27.60;100413.81;5073414;28;20036;-44
2022/12/09 14:30:26;;;;;;;1.83;1.00;;;;;;;24.87;27.53;100409.41;5073359;28;20024;-45
2022/12/09 14:32:54;;;;;;;2.20;1.48;;;;;;;24.85;27.37;100408.53;5071661;28;20494;-46
2022/12/09 14:35:51;;;;;;;1.85;1.05;;;;;;;24.84;27.35;100409.41;5073417;28;20078;-44
2022/12/09 14:38:29;;;;;;;2.22;1.02;;;;;;;24.85;27.40;100413.78;5073196;28;20032;-45
2022/12/09 14:41:21;;;;;;;1.60;0.90;;;;;;;24.85;27.43;100416.41;5071979;28;20028;-46
2022/12/09 14:43:58;;;;;;;1.65;1.20;;;;;;;24.92;27.21;100423.44;5072963;28;20028;-45
2022/12/09 14:46:28;;;;;;;0.73;0.60;;;;;;;24.98;27.38;100422.56;5088650;28;20036;-43
2022/12/09 14:49:01;;;;;;;0.90;0.60;;;;;;;24.97;27.52;100431.28;5073387;28;20533;-47
2022/12/09 14:51:37;;;;;;;1.23;0.88;;;;;;;24.83;27.55;100436.53;5087959;28;20040;-46
2022/12/09 14:54:13;;;;;;;1.63;0.80;;;;;;;24.88;27.23;100438.31;5088492;28;20024;-43
2022/12/09 14:56:48;;;;;;;1.50;0.95;;;;;;;24.91;27.39;100434.78;5072679;28;20107;-43
2022/12/09 14:59:21;;;;;;;2.45;1.00;;;;;;;24.91;27.27;100440.03;5073326;28;20031;-44
2022/12/09 15:02:10;;;;;;;1.60;0.93;;;;;;;24.92;27.17;100440.91;5072916;28;20024;-44
2022/12/09 15:04:44;;;;;;;1.88;0.82;;;;;;;24.95;27.57;100438.28;5069337;28;20040;-46
2022/12/09 15:07:24;;;;;;;2.58;1.00;;;;;;;24.93;27.33;100440.91;5073138;28;20047;-46
2022/12/09 15:09:57;;;;;;;1.92;1.30;;;;;;;24.94;27.32;100450.53;5073227;28;20040;-46
2022/12/09 15:12:32;;;;;;;1.83;0.90;;;;;;;24.91;27.29;100458.41;5088040;28;20024;-46
2022/12/09 15:15:03;;;;;;;;;;;;;;;24.92;27.11;100454.91;5071842;28;20020;-44
2022/12/09 15:17:36;;;;;;;1.70;1.13;;;;;;;24.94;27.09;100458.41;5070768;28;19978;-45
2022/12/09 15:20:06;;;;;;;1.70;0.93;;;;;;;24.94;27.37;100468.03;5072907;28;20470;-44
2022/12/09 15:22:35;;;;;;;1.48;1.02;;;;;;;24.97;27.46;100468.91;5072449;28;20489;-45
2022/12/09 15:25:04;;;;;;;2.75;1.30;;;;;;;24.98;27.30;100462.81;5072781;28;20473;-46
2022/12/09 15:27:33;;;;;;;1.20;0.90;;;;;;;25.00;27.24;100468.03;5072881;28;20531;-47
2022/12/09 15:30:05;;;;;;;1.60;0.90;;;;;;;24.97;27.42;100465.41;5088192;28;20036;-46
2022/12/09 15:32:38;;;;;;;1.30;0.95;;;;;;;25.00;27.34;100474.16;5087943;28;20026;-44
2022/12/09 15:35:18;;;;;;;2.22;1.10;;;;;;;24.99;27.04;100479.41;5072893;28;20029;-46
2022/12/09 15:37:47;;;;;;;2.10;0.88;;;;;;;24.94;27.22;100474.16;5087823;28;20036;-44
2022/12/09 15:40:19;;;;;;;1.23;0.77;;;;;;;24.93;27.32;100480.28;5072636;28;20363;-44
2022/12/09 15:42:50;;;;;;;1.67;1.10;;;;;;;24.92;27.28;100489.03;5071052;28;20362;-43
2022/12/09 15:45:25;;;;;;;1.45;1.05;;;;;;;24.95;27.20;100481.16;5072362;28;20028;-44
2022/12/09 15:47:58;;;;;;;1.58;0.93;;;;;;;24.96;27.47;100485.53;5072537;28;20028;-45
2022/12/09 15:50:47;;;;;;;1.23;0.73;;;;;;;24.96;27.38;100484.66;5072683;28;20358;-44
2022/12/09 15:53:29;;;;;;;1.63;0.90;;;;;;;25.01;26.94;100485.53;5072506;28;20102;-45
2022/12/09 15:56:03;;;;;;;1.13;0.80;;;;;;;24.93;27.00;100482.00;5072268;28;20449;-45
2022/12/09 15:58:38;;;;;;;1.60;0.65;;;;;;;24.95;27.17;100488.13;5088471;28;20462;-45
2022/12/09 16:01:07;;;;;;;1.25;0.85;;;;;;;24.97;26.99;100491.66;5072748;28;20036;-45
2022/12/09 16:03:36;;;;;;;0.95;0.75;;;;;;;24.98;26.98;100496.03;5074663;28;20162;-46
2022/12/09 16:06:07;;;;;;;1.20;0.82;;;;;;;24.96;27.29;100498.66;5074600;28;20035;-47
2022/12/09 16:08:38;;;;;;;1.50;0.80;;;;;;;24.98;27.37;100506.53;5076101;28;20393;-44
2022/12/09 16:11:07;;;;;;;2.05;0.90;;;;;;;24.94;27.38;100500.41;5091538;28;20381;-47
2022/12/09 16:13:36;;;;;;;0.85;0.80;;;;;;;24.95;26.80;100499.53;5076017;28;20094;-46
2022/12/09 16:16:25;;;;;;;1.58;1.10;;;;;;;24.95;27.46;100501.25;5075355;28;20048;-45
2022/12/09 16:18:55;;;;;;;1.55;0.88;;;;;;;24.91;27.13;100500.38;5091478;28;20549;-45
2022/12/09 16:21:27;;;;;;;1.30;0.70;;;;;;;24.99;27.31;100500.41;5075951;28;20029;-46
2022/12/09 16:24:04;;;;;;;1.42;1.05;;;;;;;24.96;27.31;100498.66;5074887;28;20108;-46
2022/12/09 16:26:37;;;;;;;2.80;1.00;;;;;;;24.95;27.02;100501.25;5090852;28;20025;-45
2022/12/09 16:29:14;;;;;;;1.90;1.02;;;;;;;24.90;27.05;100506.50;5091142;28;20051;-44
2022/12/09 16:31:42;;;;;;;1.67;1.15;;;;;;;24.94;27.09;100508.28;5075469;28;20131;-46
2022/12/09 16:34:30;;;;;;;2.08;0.90;;;;;;;24.96;27.14;100517.03;5091040;28;20021;-46
2022/12/09 16:36:58;;;;;;;1.70;0.90;;;;;;;25.01;27.15;100512.63;5091131;28;20421;-47
2022/12/09 16:39:27;;;;;;;2.60;1.23;;;;;;;24.99;27.01;100518.78;5075660;28;20462;-45
2022/12/09 16:41:59;;;;;;;4.25;0.80;;;;;;;24.98;27.16;100511.78;5075657;28;20592;-44
2022/12/09 16:44:38;;;;;;;3.85;1.00;;;;;;;24.95;27.05;100515.28;5091064;28;20401;-45
2022/12/09 16:47:18;;;;;;;1.73;1.15;;;;;;;24.93;27.46;100513.50;5074548;28;20029;-47
2022/12/09 16:49:48;;;;;;;3.80;1.25;;;;;;;25.00;26.92;100516.13;5075578;28;20409;-44
2022/12/09 16:52:21;;;;;;;3.80;1.35;;;;;;;25.04;27.04;100524.91;5075066;28;20024;-49
2022/12/09 16:54:50;;;;;;;4.38;1.17;;;;;;;25.07;27.03;100526.66;5074960;28;20025;-49
2022/12/09 16:57:19;;;;;;;1.70;1.02;;;;;;;25.10;26.71;100524.03;5075223;28;20028;-44
2022/12/09 16:59:48;;;;;;;2.13;1.23;;;;;;;25.11;27.01;100528.41;5075172;28;20086;-44
2022/12/09 17:02:20;;;;;;;2.90;1.35;;;;;;;25.04;27.03;100522.28;5074951;28;20328;-45
2022/12/09 17:04:49;;;;;;;4.72;1.23;;;;;;;24.99;26.85;100519.63;5075495;28;20040;-46
2022/12/09 17:07:17;;;;;;;2.28;1.15;;;;;;;25.00;27.11;100521.38;5073811;28;20032;-46
2022/12/09 17:09:46;;;;;;;2.10;1.20;;;;;;;24.90;27.38;100526.63;5074101;28;20025;-45
2022/12/09 17:12:15;;;;;;;2.28;1.13;;;;;;;24.94;26.91;100539.75;5074856;28;20024;-44
2022/12/09 17:14:43;;;;;;;2.13;1.33;;;;;;;24.95;27.22;100545.88;5074749;28;20032;-43
2022/12/09 17:17:12;;;;;;;2.00;1.45;;;;;;;24.94;27.01;100555.50;5074674;28;20049;-44
2022/12/09 17:19:42;;;;;;;2.15;1.30;;;;;;;24.92;26.81;100552.00;5075266;28;20021;-44
2022/12/09 17:22:10;;;;;;;2.13;1.30;;;;;;;24.86;26.94;100562.47;5074731;28;20035;-46
2022/12/09 17:24:39;;;;;;;3.28;1.60;;;;;;;24.87;27.27;100562.47;5074645;28;20473;-43
2022/12/09 17:27:08;;;;;;;5.47;1.48;;;;;;;24.92;26.78;100565.13;5074264;28;20029;-46
2022/12/09 17:29:37;;;;;;;3.85;1.33;;;;;;;24.94;26.94;100563.38;5074745;28;20029;-44
2022/12/09 17:32:05;;;;;;;1.95;1.27;;;;;;;24.94;26.99;100567.72;5074419;28;20028;-47
2022/12/09 17:34:34;;;;;;;5.43;1.48;;;;;;;24.88;27.08;100560.72;5074650;28;20466;-47
2022/12/09 17:37:02;;;;;;;2.55;1.48;;;;;;;24.84;27.12;100575.59;5074031;28;20024;-45
2022/12/09 17:39:31;;;;;;;2.30;1.30;;;;;;;24.82;27.35;100574.69;5074436;28;20035;-45
2022/12/09 17:41:59;;;;;;;2.95;1.58;;;;;;;24.81;26.90;100569.47;5074233;28;20090;-44
2022/12/09 17:44:27;;;;;;;2.55;1.55;;;;;;;24.81;27.10;100572.94;5074437;28;20089;-44
2022/12/09 17:46:55;;;;;;;3.33;1.80;;;;;;;24.80;27.32;100578.19;5074388;28;20016;-46
2022/12/09 17:49:24;;;;;;;3.42;1.42;;;;;;;24.79;27.00;100573.81;5073597;28;20028;-45
2022/12/09 17:51:53;;;;;;;2.83;1.70;;;;;;;24.76;27.22;100574.66;5074015;28;20029;-47
2022/12/09 17:54:21;;;;;;;6.10;2.20;;;;;;;24.76;27.45;100573.81;5072798;28;20111;-43
2022/12/09 17:56:50;;;;;;;2.75;1.83;;;;;;;24.76;27.32;100574.66;5073867;28;20082;-48
2022/12/09 17:59:18;;;;;;;2.92;2.13;;;;;;;24.71;27.22;100582.53;5073796;28;20034;-46
2022/12/09 18:01:47;;;;;;;4.90;2.70;;;;;;;24.68;27.39;100579.00;5073885;28;20024;-44
2022/12/09 18:04:16;;;;;;;3.60;1.60;;;;;;;24.65;27.79;100592.97;5073738;28;20025;-45
2022/12/09 18:06:45;;;;;;;5.63;1.92;;;;;;;24.64;27.38;100588.59;5073368;28;20458;-43
2022/12/09 18:09:16;;;;;;;4.15;2.00;;;;;;;24.65;27.43;100594.72;5073741;28;20032;-44
2022/12/09 18:11:45;;;;;;;3.63;2.20;;;;;;;24.67;27.35;100609.56;5072607;28;20025;-44
2022/12/09 18:14:14;;;;;;;2.95;1.55;;;;;;;24.65;27.09;100600.84;5073724;28;20473;-45
2022/12/09 18:16:43;;;;;;;3.97;1.80;;;;;;;24.64;26.92;100604.34;5073989;28;20071;-45
2022/12/09 18:19:15;;;;;;;3.80;1.90;;;;;;;24.62;27.12;100608.69;5073595;28;20481;-46
2022/12/09 18:21:44;;;;;;;4.13;2.38;;;;;;;24.62;26.96;100608.69;5073821;28;20033;-43
2022/12/09 18:24:13;;;;;;;6.15;1.80;;;;;;;24.61;27.26;100616.53;5073495;28;20108;-47
2022/12/09 18:26:42;;;;;;;2.58;1.60;;;;;;;24.60;27.25;100610.44;5073359;28;20387;-43
2022/12/09 18:29:11;;;;;;;3.88;1.80;;;;;;;24.61;27.20;100611.28;5073339;28;20028;-47
2022/12/09 18:31:40;;;;;;;3.67;2.00;;;;;;;24.61;26.87;100611.28;5072718;28;20028;-44
2022/12/09 18:34:09;;;;;;;3.40;2.20;;;;;;;24.62;27.04;100613.06;5072835;28;20116;-44
2022/12/09 18:36:38;;;;;;;2.65;1.83;;;;;;;24.54;27.16;100603.41;5073138;28;20543;-45
2022/12/09 18:39:06;;;;;;;2.40;1.70;;;;;;;24.62;26.96;100610.44;5073246;28;20036;-45
2022/12/09 18:41:35;;;;;;;3.15;1.88;;;;;;;24.58;27.10;100612.16;5073156;28;20091;-43
2022/12/09 18:44:06;;;;;;;2.80;1.85;;;;;;;24.57;26.75;100615.66;5073146;28;20116;-43
2022/12/09 18:46:37;;;;;;;4.78;2.25;;;;;;;24.64;26.77;100622.69;5073320;28;20039;-45
2022/12/09 18:49:08;;;;;;;3.47;2.30;;;;;;;24.61;26.92;100621.78;5073149;28;20048;-44
2022/12/09 18:51:39;;;;;;;3.35;2.13;;;;;;;24.66;26.93;100630.56;5073177;28;20024;-43
2022/12/09 18:54:08;;;;;;;3.33;2.10;;;;;;;24.63;27.08;100635.78;5073298;28;20075;-44
2022/12/09 18:56:37;;;;;;;5.07;2.70;;;;;;;24.63;26.47;100631.44;5073024;28;20032;-43
2022/12/09 18:59:06;;;;;;;5.70;2.75;;;;;;;24.64;26.78;100634.91;5072638;28;20381;-43
2022/12/09 19:01:37;;;;;;;6.25;2.78;;;;;;;24.68;26.71;100634.06;5072946;28;20025;-44
2022/12/09 19:04:07;;;;;;;5.85;2.80;;;;;;;24.64;26.89;100638.44;5072973;28;20527;-46
2022/12/09 19:06:37;;;;;;;5.55;2.92;;;;;;;24.62;26.86;100636.66;5073221;28;20028;-43
2022/12/09 19:09:08;;;;;;;5.38;3.30;;;;;;;24.58;26.74;100634.00;5072959;28;20082;-43
2022/12/09 19:11:38;;;;;;;7.57;3.20;;;;;;;24.61;26.83;100637.53;5072768;28;20028;-46
2022/12/09 19:14:08;;;;;;;4.88;3.20;;;;;;;24.63;26.53;100647.19;5073129;28;20534;-44
2022/12/09 19:16:36;;;;;;;5.63;3.78;;;;;;;24.60;26.61;100639.28;5072596;28;20507;-45
2022/12/09 19:19:05;;;;;;;7.18;3.38;;;;;;;24.66;26.36;100646.31;5072853;28;20053;-44
2022/12/09 19:21:34;;;;;;;7.38;3.58;;;;;;;24.64;26.65;100646.31;5072720;28;20121;-44
2022/12/09 19:24:02;;;;;;;5.68;3.67;;;;;;;24.68;26.33;100645.44;5072588;28;20488;-46
2022/12/09 19:26:33;;;;;;;6.03;4.20;;;;;;;24.62;26.40;100655.91;5072733;28;20033;-43
2022/12/09 19:29:04;;;;;;;5.85;3.50;;;;;;;24.61;26.56;100656.78;5072657;28;20518;-45
2022/12/09 19:31:36;;;;;;;6.60;3.92;;;;;;;24.72;26.33;100655.09;5072496;28;20021;-43
2022/12/09 19:34:07;;;;;;;6.47;3.40;;;;;;;24.63;26.52;100665.53;5072989;28;20142;-44
2022/12/09 19:36:36;;;;;;;6.80;3.67;;;;;;;24.57;26.70;100661.09;5072300;28;20123;-44
2022/12/09 19:39:06;;;;;;;6.55;3.22;;;;;;;24.56;26.53;100661.09;5075477;28;20055;-45
2022/12/09 19:41:36;;;;;;;5.32;3.47;;;;;;;24.53;26.48;100653.22;5076796;28;20028;-45
2022/12/09 19:44:05;;;;;;;5.97;3.53;;;;;;;24.50;26.56;100658.44;5076742;28;20602;-46
2022/12/09 19:46:37;;;;;;;5.35;3.42;;;;;;;24.41;26.58;100657.53;5076523;28;20418;-45
2022/12/09 19:49:05;;;;;;;5.82;3.28;;;;;;;24.47;26.83;100659.31;5076335;28;20028;-43
2022/12/09 19:51:34;;;;;;;6.55;3.67;;;;;;;24.52;26.55;100656.72;5076366;28;20032;-44
2022/12/09 19:54:03;;;;;;;6.38;3.20;;;;;;;24.62;26.45;100652.38;5076256;28;20029;-43
2022/12/09 19:56:31;;;;;;;6.00;3.53;;;;;;;24.65;26.52;100657.66;5076366;28;20131;-45
2022/12/09 19:59:00;;;;;;;6.22;3.22;;;;;;;24.70;26.64;100656.84;5076427;28;20389;-47
2022/12/09 20:01:32;;;;;;;5.32;2.67;;;;;;;24.67;26.91;100659.41;5075735;28;20544;-46
2022/12/09 20:04:04;;;;;;;4.43;3.20;;;;;;;24.65;26.88;100668.16;5076124;28;20392;-46
2022/12/09 20:06:33;;;;;;;7.13;2.80;;;;;;;24.64;26.88;100669.91;5076380;28;20024;-49
2022/12/09 20:09:02;;;;;;;4.70;2.92;;;;;;;24.65;26.82;100676.03;5074788;28;20028;-47
2022/12/09 20:11:33;;;;;;;3.95;2.88;;;;;;;24.72;27.05;100677.84;5091399;28;20110;-45
2022/12/09 20:14:04;;;;;;;4.07;2.70;;;;;;;24.70;26.58;100679.59;5074465;28;20028;-47
2022/12/09 20:16:33;;;;;;;4.85;2.55;;;;;;;24.63;27.08;100685.63;5075827;28;20041;-45
2022/12/09 20:19:02;;;;;;;3.58;2.28;;;;;;;24.55;26.88;100685.56;5075990;28;20032;-46
2022/12/09 20:21:32;;;;;;;4.82;2.78;;;;;;;24.58;27.03;100682.97;5075786;28;20021;-44
2022/12/09 20:24:01;;;;;;;4.35;2.85;;;;;;;24.62;27.00;100686.50;5075406;28;20029;-43
2022/12/09 20:26:33;;;;;;;4.38;2.83;;;;;;;24.60;26.79;100694.34;5075595;28;20481;-42
2022/12/09 20:29:04;;;;;;;4.22;2.80;;;;;;;24.55;26.93;100701.31;5075731;28;20052;-43
2022/12/09 20:31:34;;;;;;;4.93;2.92;;;;;;;24.58;26.90;100711.81;5075485;28;20052;-43
2022/12/09 20:34:07;;;;;;;4.82;2.55;;;;;;;24.54;26.69;100716.19;5075337;28;20036;-45
2022/12/09 20:36:36;;;;;;;4.35;2.45;;;;;;;24.49;27.26;100712.66;5075583;28;20085;-45
2022/12/09 20:39:11;;;;;;;4.45;2.40;;;;;;;24.52;26.85;100711.78;5075347;28;20439;-44
2022/12/09 20:41:40;;;;;;;4.75;2.83;;;;;;;24.58;27.04;100722.31;5075409;28;20032;-47
2022/12/09 20:44:10;;;;;;;4.43;2.20;;;;;;;24.62;26.86;100721.47;5074983;28;20033;-45
2022/12/09 20:46:40;;;;;;;4.63;2.35;;;;;;;24.56;27.05;100726.66;5075405;28;20036;-45
2022/12/09 20:49:09;;;;;;;4.07;2.42;;;;;;;24.56;26.58;100729.28;5074054;28;20505;-44
2022/12/09 20:51:39;;;;;;;3.80;2.55;;;;;;;24.49;26.87;100738.88;5084863;28;20081;-45
2022/12/09 20:54:10;;;;;;;3.50;2.42;;;;;;;24.51;26.97;100733.63;5095524;28;20024;-45
2022/12/09 20:56:38;;;;;;;3.70;2.45;;;;;;;24.53;27.00;100737.13;5095733;28;20064;-44
2022/12/09 20:59:09;;;;;;;3.97;2.53;;;;;;;24.60;26.52;100735.44;5095638;28;20016;-43
2022/12/09 21:01:38;;;;;;;2.97;2.05;;;;;;;24.54;26.97;100731.03;5095515;28;20021;-43
2022/12/09 21:04:07;;;;;;;3.20;2.20;;;;;;;24.47;27.14;100732.72;5095267;28;20031;-43
2022/12/09 21:06:38;;;;;;;3.80;2.20;;;;;;;24.45;27.10;100730.97;5095253;28;20114;-45
2022/12/09 21:09:09;;;;;;;4.93;2.60;;;;;;;24.50;26.72;100738.00;5095144;28;20031;-44
